createdAt,value
2022-10-20T00:04:31.603Z,199.60166
2022-10-20T00:09:33.289Z,194.4065
2022-10-20T00:14:35.230Z,197.49794
2022-10-20T00:19:37.380Z,193.39271
2022-10-20T00:24:39.074Z,185.56863
2022-10-20T00:29:41.132Z,198.54545
2022-10-20T00:34:42.854Z,198.54545
2022-10-20T00:39:44.775Z,191.38956
2022-10-20T00:44:46.479Z,199.60166
2022-10-20T00:49:48.482Z,198.54545
2022-10-20T00:54:50.815Z,197.49794
2022-10-20T00:59:52.548Z,207.24786
2022-10-20T01:04:54.494Z,198.54545
2022-10-20T01:09:56.634Z,198.54545
2022-10-20T01:14:58.654Z,203.91561
2022-10-20T01:20:00.472Z,208.37768
2022-10-20T01:25:02.405Z,201.74059
2022-10-20T01:30:04.465Z,200.66667
2022-10-20T01:35:06.137Z,205.01695
2022-10-20T01:40:08.055Z,201.74059
2022-10-20T01:45:09.805Z,203.91561
2022-10-20T01:50:11.398Z,201.74059
2022-10-20T01:55:13.141Z,205.01695
2022-10-20T02:00:14.771Z,199.60166
2022-10-20T02:05:16.396Z,208.37768
2022-10-20T02:10:18.049Z,220.23318
2022-10-20T02:15:19.698Z,210.66667
2022-10-20T02:20:21.331Z,207.24786
2022-10-20T02:25:22.996Z,210.66667
2022-10-20T02:30:24.651Z,208.37768
2022-10-20T02:35:26.281Z,214.17544
2022-10-20T02:40:27.880Z,209.51724
2022-10-20T02:45:29.528Z,203.91561
2022-10-20T02:50:31.174Z,206.12766
2022-10-20T02:55:32.772Z,203.91561
2022-10-20T03:00:34.411Z,214.17544
2022-10-20T03:05:36.192Z,212.99563
2022-10-20T03:10:37.824Z,216.56637
2022-10-20T03:15:39.442Z,217.77778
2022-10-20T03:20:41.049Z,214.17544
2022-10-20T03:25:42.803Z,222.73303
2022-10-20T03:30:44.405Z,211.82609
2022-10-20T03:35:46.905Z,216.56637
2022-10-20T03:40:48.729Z,224
2022-10-20T03:45:50.378Z,219
2022-10-20T03:50:52.022Z,215.36564
2022-10-20T03:55:53.670Z,214.17544
2022-10-20T04:00:55.269Z,210.66667
2022-10-20T04:05:56.776Z,209.51724
2022-10-20T04:10:58.393Z,208.37768
2022-10-20T04:16:00.003Z,212.99563
2022-10-20T04:21:01.650Z,210.66667
2022-10-20T04:26:03.381Z,209.51724
2022-10-20T04:31:04.998Z,209.51724
2022-10-20T04:36:06.602Z,207.24786
2022-10-20T04:41:08.263Z,203.91561
2022-10-20T04:46:09.886Z,206.12766
2022-10-20T04:51:11.484Z,209.51724
2022-10-20T04:56:13.229Z,208.37768
2022-10-20T05:01:14.986Z,209.51724
2022-10-20T05:06:16.721Z,210.66667
2022-10-20T05:11:18.344Z,210.66667
2022-10-20T05:16:20.059Z,211.82609
2022-10-20T05:21:21.777Z,211.82609
2022-10-20T05:26:23.358Z,212.99563
2022-10-20T05:31:25.118Z,211.82609
2022-10-20T05:36:26.772Z,217.77778
2022-10-20T05:41:28.379Z,216.56637
2022-10-20T05:46:29.989Z,215.36564
2022-10-20T05:51:31.618Z,215.36564
2022-10-20T05:56:33.208Z,208.37768
2022-10-20T06:01:34.805Z,214.17544
2022-10-20T06:06:36.437Z,219
2022-10-20T06:11:39.501Z,217.77778
2022-10-20T06:16:41.447Z,212.99563
2022-10-20T06:26:44.886Z,219
2022-10-20T06:31:46.483Z,224
2022-10-20T06:36:48.104Z,220.23318
2022-10-20T06:41:49.748Z,217.77778
2022-10-20T06:46:51.378Z,206.12766
2022-10-20T06:51:53.198Z,217.77778
2022-10-20T06:56:54.775Z,216.56637
2022-10-20T07:01:56.398Z,215.36564
2022-10-20T07:06:58.041Z,215.36564
2022-10-20T07:11:59.644Z,215.36564
2022-10-20T07:17:01.282Z,226.56881
2022-10-20T07:22:03.036Z,217.77778
2022-10-20T07:27:04.673Z,211.82609
2022-10-20T07:32:06.275Z,215.36564
2022-10-20T07:37:07.976Z,219
2022-10-20T07:42:09.687Z,222.73303
2022-10-20T07:47:11.336Z,220.23318
2022-10-20T07:52:12.956Z,217.77778
2022-10-20T07:57:14.611Z,222.73303
2022-10-20T08:02:16.295Z,221.47748
2022-10-20T08:07:17.983Z,220.23318
2022-10-20T08:12:19.700Z,226.56881
2022-10-20T08:17:22.128Z,227.87097
2022-10-20T08:22:23.835Z,231.85047
2022-10-20T08:27:25.503Z,230.51163
2022-10-20T08:32:27.094Z,231.85047
2022-10-20T08:37:28.691Z,233.20188
2022-10-20T08:42:30.289Z,234.56604
2022-10-20T08:47:33.440Z,234.56604
2022-10-20T08:52:35.438Z,235.94313
2022-10-20T08:57:37.116Z,237.33333
2022-10-20T09:02:38.827Z,237.33333
2022-10-20T09:07:40.580Z,235.94313
2022-10-20T09:12:42.201Z,233.20188
2022-10-20T09:17:43.843Z,243.02913
2022-10-20T09:22:45.434Z,240.15385
2022-10-20T09:27:47.036Z,240.15385
2022-10-20T09:32:48.884Z,243.02913
2022-10-20T09:37:50.602Z,243.02913
2022-10-20T09:42:52.267Z,240.15385
2022-10-20T09:47:53.987Z,250.46766
2022-10-20T09:52:55.581Z,248.9505
2022-10-20T09:57:57.281Z,243.02913
2022-10-20T10:02:59.018Z,244.4878
2022-10-20T10:08:00.629Z,243.02913
2022-10-20T10:13:02.339Z,243.02913
2022-10-20T10:18:04.006Z,244.4878
2022-10-20T10:23:05.611Z,248.9505
2022-10-20T10:28:07.444Z,250.46766
2022-10-20T10:33:09.051Z,247.44828
2022-10-20T10:38:10.650Z,244.4878
2022-10-20T10:43:12.326Z,247.44828
2022-10-20T10:48:14.112Z,240.15385
2022-10-20T10:53:15.732Z,237.33333
2022-10-20T10:58:17.380Z,235.94313
2022-10-20T11:03:19.079Z,226.56881
2022-10-20T11:08:20.689Z,230.51163
2022-10-20T11:13:24.558Z,231.85047
2022-10-20T11:18:28.621Z,231.85047
2022-10-20T11:23:30.263Z,233.20188
2022-10-20T11:28:31.950Z,241.58454
2022-10-20T11:33:35.723Z,237.33333
2022-10-20T11:38:39.644Z,240.15385
2022-10-20T11:43:41.373Z,237.33333
2022-10-20T11:48:42.954Z,238.73684
2022-10-20T11:53:44.860Z,237.33333
2022-10-20T11:58:46.518Z,234.56604
2022-10-20T12:03:48.146Z,234.56604
2022-10-20T12:08:49.787Z,233.20188
2022-10-20T12:13:51.442Z,233.20188
2022-10-20T12:18:53.155Z,230.51163
2022-10-20T12:23:54.849Z,229.18519
2022-10-20T12:28:56.442Z,226.56881
2022-10-20T12:33:58.086Z,225.27854
2022-10-20T12:38:59.734Z,226.56881
2022-10-20T12:44:01.349Z,225.27854
2022-10-20T12:49:05.535Z,225.27854
2022-10-20T12:54:10.062Z,211.82609
2022-10-20T12:59:11.667Z,206.12766
2022-10-20T13:04:13.353Z,210.66667
2022-10-20T13:09:14.988Z,196.45902
2022-10-20T13:14:16.618Z,206.12766
2022-10-20T13:19:18.232Z,180.01533
2022-10-20T13:24:19.874Z,183.68872
2022-10-20T13:29:21.522Z,188.44444
2022-10-20T13:34:23.158Z,195.42857
2022-10-20T13:39:24.878Z,214.17544
2022-10-20T13:44:31.196Z,212.99563
2022-10-20T13:49:33.899Z,210.66667
2022-10-20T13:54:35.499Z,210.66667
2022-10-20T13:59:38.626Z,207.24786
2022-10-20T14:04:42.326Z,207.24786
2022-10-20T14:09:47.451Z,207.24786
2022-10-20T14:14:51.056Z,205.01695
2022-10-20T14:19:52.631Z,209.51724
2022-10-20T14:24:54.238Z,207.24786
2022-10-20T14:29:55.982Z,207.24786
2022-10-20T14:39:58.176Z,208.37768
2022-10-20T14:44:59.856Z,209.51724
2022-10-20T14:50:01.611Z,206.12766
2022-10-20T14:55:03.272Z,206.12766
2022-10-20T15:00:05.134Z,194.4065
2022-10-20T15:05:06.810Z,198.54545
2022-10-20T15:10:08.407Z,198.54545
2022-10-20T15:15:10.165Z,201.74059
2022-10-20T15:20:11.853Z,210.66667
2022-10-20T15:25:13.692Z,203.91561
2022-10-20T15:30:15.280Z,211.82609
2022-10-20T15:35:16.933Z,217.77778
2022-10-20T15:40:18.559Z,215.36564
2022-10-20T15:45:20.130Z,211.82609
2022-10-20T15:50:24.225Z,209.51724
2022-10-20T15:55:26.686Z,207.24786
2022-10-20T16:00:28.278Z,209.51724
2022-10-20T16:05:29.886Z,206.12766
2022-10-20T16:10:31.606Z,205.01695
2022-10-20T16:15:33.240Z,201.74059
2022-10-20T16:20:34.865Z,200.66667
2022-10-20T16:25:36.431Z,202.82353
2022-10-20T16:30:38.026Z,203.91561
2022-10-20T16:35:39.701Z,201.74059
2022-10-20T16:40:41.454Z,197.49794
2022-10-20T16:45:43.141Z,205.01695
2022-10-20T16:50:44.813Z,209.51724
2022-10-20T16:55:46.542Z,196.45902
2022-10-20T17:00:48.190Z,205.01695
2022-10-20T17:05:49.858Z,207.24786
2022-10-20T17:10:51.509Z,207.24786
2022-10-20T17:15:53.128Z,208.37768
2022-10-20T17:20:54.733Z,219
2022-10-20T17:25:56.346Z,214.17544
2022-10-20T17:30:57.971Z,217.77778
2022-10-20T17:35:59.564Z,205.01695
2022-10-20T17:41:01.232Z,214.17544
2022-10-20T17:46:02.850Z,214.17544
2022-10-20T17:51:04.536Z,215.36564
2022-10-20T17:56:06.173Z,219
2022-10-20T18:01:07.816Z,216.56637
2022-10-20T18:06:09.515Z,214.17544
2022-10-20T18:11:11.142Z,216.56637
2022-10-20T18:16:12.748Z,217.77778
2022-10-20T18:21:14.341Z,219
2022-10-20T18:26:15.934Z,216.56637
2022-10-20T18:31:17.555Z,219
2022-10-20T18:36:19.217Z,215.36564
2022-10-20T18:41:20.900Z,199.60166
2022-10-20T18:46:22.558Z,197.49794
2022-10-20T18:51:24.190Z,195.42857
2022-10-20T18:56:25.885Z,185.56863
2022-10-20T19:01:27.643Z,190.4
2022-10-20T19:06:29.336Z,188.44444
2022-10-20T19:11:31.072Z,191.38956
2022-10-20T19:16:32.692Z,187.47826
2022-10-20T19:21:34.399Z,189.41833
2022-10-20T19:26:36.009Z,189.41833
2022-10-20T19:31:37.608Z,192.3871
2022-10-20T19:36:39.246Z,197.49794
2022-10-20T19:41:40.867Z,195.42857
2022-10-20T19:46:42.493Z,196.45902
2022-10-20T19:51:44.150Z,195.42857
2022-10-20T19:56:45.828Z,200.66667
2022-10-20T20:01:47.446Z,195.42857
2022-10-20T20:06:49.177Z,199.60166
2022-10-20T20:11:50.847Z,206.12766
2022-10-20T20:16:52.455Z,199.60166
2022-10-20T20:21:54.094Z,207.24786
2022-10-20T20:26:55.759Z,208.37768
2022-10-20T20:31:57.381Z,202.82353
2022-10-20T20:36:59.039Z,202.82353
2022-10-20T20:42:00.742Z,201.74059
2022-10-20T20:47:02.384Z,210.66667
2022-10-20T20:52:03.958Z,206.12766
2022-10-20T20:57:05.610Z,214.17544
2022-10-20T21:02:07.312Z,211.82609
2022-10-20T21:07:08.940Z,214.17544
2022-10-20T21:17:12.241Z,208.37768
2022-10-20T21:22:13.859Z,216.56637
2022-10-20T21:27:15.461Z,211.82609
2022-10-20T21:32:17.057Z,216.56637
2022-10-20T21:37:18.689Z,221.47748
2022-10-20T21:42:20.314Z,208.37768
2022-10-20T21:47:21.969Z,211.82609
2022-10-20T21:52:23.583Z,227.87097
2022-10-20T21:57:25.320Z,214.17544
2022-10-20T22:02:26.933Z,214.17544
2022-10-20T22:07:28.672Z,234.56604
2022-10-20T22:12:30.424Z,222.73303
2022-10-20T22:17:32.056Z,235.94313
2022-10-20T22:22:33.725Z,220.23318
2022-10-20T22:27:42.308Z,221.47748
2022-10-20T22:32:44.391Z,207.24786
2022-10-20T22:37:45.996Z,194.4065
2022-10-20T22:42:47.683Z,196.45902
2022-10-20T22:47:49.282Z,231.85047
2022-10-20T22:52:50.895Z,190.4
2022-10-20T22:57:52.591Z,205.01695
2022-10-20T23:02:54.309Z,201.74059
2022-10-20T23:07:55.949Z,197.49794
2022-10-20T23:12:57.819Z,168
2022-10-20T23:17:59.461Z,200.66667
2022-10-20T23:23:01.125Z,200.66667
2022-10-20T23:28:02.837Z,189.41833
2022-10-20T23:33:04.636Z,179.1145
2022-10-20T23:38:06.240Z,183.68872
2022-10-20T23:43:07.804Z,185.56863
2022-10-20T23:48:09.514Z,183.68872
2022-10-20T23:53:11.127Z,180.92308
2022-10-20T23:58:12.751Z,192.3871
